Flugplatz Oberpfaffenhofen

Bericht für EDMO

vom 30.09. um 21:20 UTC

Wind 2 kt aus 240°

Sichtweite 10 km oder mehr

bedeckt in 4800 ft

Temperatur 9.0°C

Taupunkt 9.0°C

Luftfeuchtigkeit 100%

Luftdruck 1014 hPa

EDMO 302120Z AUTO 24002KT 9999 // OVC048/// 09/09 Q1014

Prognose für EDMO

vom 30.09. um 17:00 UTC

Am 30.09. zwischen 18:00 UTC und 03:00 UTC

variable Windrichtung mit 3 kt

Sichtweite 10 km oder mehr

aufgebrochene Bewölkung in 2500 ft


Am 30.09. zwischen 23:00 UTC und 03:00 UTC zeitweise

Sichtweite 700 m

Nebel

TAF EDMO 301700Z 3018/0103 VRB03KT 9999 BKN025 TEMPO 3023/0103 0700 FG
Impressum